createdAt,value
2018-01-22T00:00:19.320Z,0.00
2018-01-22T00:01:19.228Z,0.00
2018-01-22T00:02:19.120Z,0.00
2018-01-22T00:03:19.053Z,0.00
2018-01-22T00:04:18.968Z,0.00
2018-01-22T00:05:18.893Z,0.00
2018-01-22T00:06:18.803Z,0.00
2018-01-22T00:07:18.720Z,0.00
2018-01-22T00:08:18.624Z,0.00
2018-01-22T00:09:18.559Z,0.00
2018-01-22T00:10:18.476Z,0.00
2018-01-22T00:11:18.393Z,0.00
2018-01-22T00:12:18.288Z,0.00
2018-01-22T00:13:18.217Z,0.00
2018-01-22T00:14:18.129Z,0.00
2018-01-22T00:15:18.061Z,0.00
2018-01-22T00:16:18.037Z,0.00
2018-01-22T00:17:17.889Z,0.00
2018-01-22T00:18:17.832Z,0.00
2018-01-22T00:19:17.714Z,0.00
2018-01-22T00:20:17.655Z,0.00
2018-01-22T00:21:17.585Z,0.00
2018-01-22T00:22:17.451Z,0.00
2018-01-22T00:23:17.383Z,0.00
2018-01-22T00:24:17.283Z,0.00
2018-01-22T00:25:17.241Z,0.00
2018-01-22T00:26:17.158Z,0.00
2018-01-22T00:27:17.048Z,0.00
2018-01-22T00:28:16.946Z,0.00
2018-01-22T00:29:16.878Z,0.00
2018-01-22T00:30:16.789Z,0.00
2018-01-22T00:31:16.737Z,0.00
2018-01-22T00:32:16.617Z,0.00
2018-01-22T00:33:16.563Z,0.00
2018-01-22T00:34:16.448Z,0.00
2018-01-22T00:35:16.377Z,0.00
2018-01-22T00:36:16.317Z,0.00
2018-01-22T00:37:16.218Z,0.00
2018-01-22T00:38:16.122Z,0.00
2018-01-22T00:39:16.096Z,0.00
2018-01-22T00:40:15.958Z,0.00
2018-01-22T00:41:15.901Z,0.00
2018-01-22T00:42:15.799Z,0.00
2018-01-22T00:43:15.719Z,0.00
2018-01-22T00:44:15.619Z,0.00
2018-01-22T00:45:15.544Z,0.00
2018-01-22T00:46:15.453Z,0.00
2018-01-22T00:47:15.399Z,0.00
2018-01-22T00:48:15.359Z,0.00
2018-01-22T00:49:15.214Z,0.00
2018-01-22T00:50:15.120Z,0.00
2018-01-22T00:51:15.041Z,0.00
2018-01-22T00:52:14.974Z,0.00
2018-01-22T00:53:14.887Z,0.00
2018-01-22T00:54:14.807Z,0.00
2018-01-22T00:55:14.719Z,0.00
2018-01-22T00:56:14.612Z,0.00
2018-01-22T00:57:14.707Z,0.00
2018-01-22T00:58:14.455Z,0.00
2018-01-22T00:59:14.404Z,0.00
2018-01-22T01:00:14.285Z,0.00
2018-01-22T01:01:14.211Z,0.00
2018-01-22T01:02:14.120Z,0.00
2018-01-22T01:03:14.066Z,0.00
2018-01-22T01:04:13.947Z,0.00
2018-01-22T01:05:13.890Z,0.00
2018-01-22T01:06:13.800Z,0.00
2018-01-22T01:07:13.718Z,0.00
2018-01-22T01:08:13.623Z,0.00
2018-01-22T01:09:13.596Z,0.00
2018-01-22T01:10:13.450Z,0.00
2018-01-22T01:11:13.379Z,0.00
2018-01-22T01:12:13.289Z,0.00
2018-01-22T01:13:13.224Z,0.00
2018-01-22T01:14:13.121Z,0.00
2018-01-22T01:15:13.046Z,0.00
2018-01-22T01:16:12.950Z,0.00
2018-01-22T01:17:12.874Z,0.00
2018-01-22T01:18:12.924Z,0.00
2018-01-22T01:19:12.724Z,0.00
2018-01-22T01:20:12.630Z,0.00
2018-01-22T01:21:12.545Z,0.00
2018-01-22T01:22:12.456Z,0.00
2018-01-22T01:23:12.398Z,0.00
2018-01-22T01:24:12.309Z,0.00
2018-01-22T01:25:12.214Z,0.00
2018-01-22T01:26:12.127Z,0.00
2018-01-22T01:27:12.053Z,0.00
2018-01-22T01:28:11.954Z,0.00
2018-01-22T01:29:12.916Z,0.00
2018-01-22T01:30:11.790Z,0.00
2018-01-22T01:31:11.714Z,0.00
2018-01-22T01:32:11.629Z,0.00
2018-01-22T01:33:11.562Z,0.00
2018-01-22T01:34:11.471Z,0.00
2018-01-22T01:35:11.389Z,0.00
2018-01-22T01:36:11.289Z,0.00
2018-01-22T01:37:11.219Z,0.00
2018-01-22T01:38:11.119Z,0.00
2018-01-22T01:39:11.084Z,0.00
2018-01-22T01:40:10.952Z,0.00
2018-01-22T01:41:10.900Z,0.00
2018-01-22T01:42:10.796Z,0.00
2018-01-22T01:43:10.702Z,0.00
2018-01-22T01:44:10.625Z,0.00
2018-01-22T01:45:10.561Z,0.00
2018-01-22T01:46:10.465Z,0.00
2018-01-22T01:47:10.409Z,0.00
2018-01-22T01:48:10.475Z,0.00
2018-01-22T01:49:10.213Z,0.00
2018-01-22T01:50:10.148Z,0.00
2018-01-22T01:51:10.104Z,0.00
2018-01-22T01:52:09.960Z,0.00
2018-01-22T01:53:09.894Z,0.00
2018-01-22T01:54:09.786Z,0.00
2018-01-22T01:55:09.714Z,0.00
2018-01-22T01:56:09.629Z,0.00
2018-01-22T01:57:09.544Z,0.00
2018-01-22T01:58:09.462Z,0.00
2018-01-22T01:59:09.396Z,0.00
2018-01-22T02:00:09.302Z,0.00
2018-01-22T02:01:09.209Z,0.00
2018-01-22T02:02:09.149Z,0.00
2018-01-22T02:03:09.075Z,0.00
2018-01-22T02:04:08.974Z,0.00
2018-01-22T02:05:08.892Z,0.00
2018-01-22T02:06:08.829Z,0.00
2018-01-22T02:07:08.717Z,0.00
2018-01-22T02:08:08.618Z,0.00
2018-01-22T02:09:08.546Z,0.00
2018-01-22T02:10:08.461Z,0.00
2018-01-22T02:11:08.466Z,0.00
2018-01-22T02:12:08.305Z,0.00
2018-01-22T02:13:08.222Z,0.00
2018-01-22T02:14:08.116Z,0.00
2018-01-22T02:15:08.049Z,0.00
2018-01-22T02:16:07.973Z,0.00
2018-01-22T02:17:07.881Z,0.00
2018-01-22T02:18:07.783Z,0.00
2018-01-22T02:19:07.713Z,0.00
2018-01-22T02:20:07.616Z,0.00
2018-01-22T02:21:07.558Z,0.00
2018-01-22T02:22:07.474Z,0.00
2018-01-22T02:23:07.387Z,0.00
2018-01-22T02:24:07.284Z,0.00
2018-01-22T02:25:07.217Z,0.00
2018-01-22T02:26:07.120Z,0.00
2018-01-22T02:27:07.077Z,0.00
2018-01-22T02:28:06.951Z,0.00
2018-01-22T02:29:06.875Z,0.00
2018-01-22T02:30:06.798Z,0.00
2018-01-22T02:31:06.719Z,0.00
2018-01-22T02:32:06.724Z,0.00
2018-01-22T02:33:06.548Z,0.00
2018-01-22T02:34:06.466Z,0.00
2018-01-22T02:35:06.387Z,0.00
2018-01-22T02:36:06.288Z,0.00
2018-01-22T02:37:06.212Z,0.00
2018-01-22T02:38:06.145Z,0.00
2018-01-22T02:39:06.051Z,0.00
2018-01-22T02:40:05.964Z,0.00
2018-01-22T02:41:05.930Z,0.00
2018-01-22T02:42:05.785Z,0.00
2018-01-22T02:43:05.726Z,0.00
2018-01-22T02:44:05.620Z,0.00
2018-01-22T02:45:05.544Z,0.00
2018-01-22T02:46:05.457Z,0.00
2018-01-22T02:47:05.376Z,0.00
2018-01-22T02:48:05.313Z,0.00
2018-01-22T02:49:05.211Z,0.00
2018-01-22T02:50:05.124Z,0.00
2018-01-22T02:51:05.043Z,0.00
2018-01-22T02:52:04.954Z,0.00
2018-01-22T02:53:04.893Z,0.00
2018-01-22T02:54:05.206Z,0.00
2018-01-22T02:55:04.772Z,0.00
2018-01-22T02:56:04.620Z,0.00
2018-01-22T02:57:04.559Z,0.00
2018-01-22T02:58:04.451Z,0.00
2018-01-22T02:59:04.399Z,0.00
2018-01-22T03:00:04.289Z,0.00
2018-01-22T03:01:04.226Z,0.00
2018-01-22T03:02:04.122Z,0.00
2018-01-22T03:03:04.046Z,0.00
2018-01-22T03:04:04.116Z,0.00
2018-01-22T03:05:03.888Z,0.00
2018-01-22T03:06:03.788Z,0.00
2018-01-22T03:07:03.723Z,0.00
2018-01-22T03:08:03.619Z,0.00
2018-01-22T03:09:03.584Z,0.00
2018-01-22T03:10:03.494Z,0.00
2018-01-22T03:11:03.388Z,0.00
2018-01-22T03:12:03.287Z,0.00
2018-01-22T03:13:03.221Z,0.00
2018-01-22T03:14:03.125Z,0.00
2018-01-22T03:15:03.073Z,0.00
2018-01-22T03:16:02.956Z,0.00
2018-01-22T03:17:02.881Z,0.00
2018-01-22T03:18:02.791Z,0.00
2018-01-22T03:19:02.723Z,0.00
2018-01-22T03:20:02.634Z,0.00
2018-01-22T03:21:02.564Z,0.00
2018-01-22T03:22:02.450Z,0.00
2018-01-22T03:23:02.390Z,0.00
2018-01-22T03:24:02.291Z,0.00
2018-01-22T03:25:02.224Z,0.00
2018-01-22T03:26:02.146Z,0.00
2018-01-22T03:27:02.053Z,0.00
2018-01-22T03:28:01.965Z,0.00
2018-01-22T03:29:01.894Z,0.00
2018-01-22T03:30:01.788Z,0.00
2018-01-22T03:31:01.746Z,0.00
2018-01-22T03:32:01.635Z,0.00
2018-01-22T03:33:01.543Z,0.00
2018-01-22T03:34:02.151Z,0.00
2018-01-22T03:35:01.387Z,0.00
2018-01-22T03:36:01.306Z,0.00
2018-01-22T03:37:01.215Z,0.00
2018-01-22T03:38:01.126Z,0.00
2018-01-22T03:39:01.053Z,0.00
2018-01-22T03:40:00.952Z,0.00
2018-01-22T03:41:00.909Z,0.00
2018-01-22T03:42:00.793Z,0.00
2018-01-22T03:43:00.843Z,0.00
2018-01-22T03:44:00.631Z,0.00
2018-01-22T03:45:00.552Z,0.00
2018-01-22T03:46:00.491Z,0.00
2018-01-22T03:47:00.379Z,0.00
2018-01-22T03:48:00.291Z,0.00
2018-01-22T03:49:00.219Z,0.00
2018-01-22T03:50:00.125Z,0.00
2018-01-22T03:51:00.076Z,0.00
2018-01-22T03:51:59.971Z,0.00
2018-01-22T03:52:59.884Z,0.00
2018-01-22T03:53:59.807Z,0.00
2018-01-22T03:54:59.719Z,0.00
2018-01-22T03:55:59.628Z,0.00
2018-01-22T03:56:59.590Z,0.00
2018-01-22T03:57:59.465Z,0.00
2018-01-22T03:58:59.391Z,0.00
2018-01-22T03:59:59.291Z,0.00
2018-01-22T04:00:59.224Z,0.00
2018-01-22T04:01:59.142Z,0.00
2018-01-22T04:02:59.057Z,0.00
2018-01-22T04:03:58.955Z,0.00
2018-01-22T04:04:58.895Z,0.00
2018-01-22T04:05:58.799Z,0.00
2018-01-22T04:06:58.749Z,0.00
2018-01-22T04:07:58.627Z,0.00
2018-01-22T04:08:58.556Z,0.00
2018-01-22T04:09:58.459Z,0.00
2018-01-22T04:10:58.385Z,0.00
2018-01-22T04:11:58.291Z,0.00
2018-01-22T04:12:58.271Z,0.00
2018-01-22T04:13:58.120Z,0.00
2018-01-22T04:14:58.053Z,0.00
2018-01-22T04:15:57.970Z,0.00
2018-01-22T04:16:57.894Z,0.00
2018-01-22T04:17:57.813Z,0.00
2018-01-22T04:18:57.733Z,0.00
2018-01-22T04:19:57.634Z,0.00
2018-01-22T04:20:57.561Z,0.00
2018-01-22T04:21:57.480Z,0.00
2018-01-22T04:22:57.412Z,0.00
2018-01-22T04:23:57.297Z,0.00
2018-01-22T04:24:57.235Z,0.00
2018-01-22T04:25:57.136Z,0.00
2018-01-22T04:26:57.061Z,0.00
2018-01-22T04:27:56.986Z,0.00
2018-01-22T04:28:56.906Z,0.00
2018-01-22T04:29:56.802Z,0.00
2018-01-22T04:30:56.733Z,0.00
2018-01-22T04:31:56.638Z,0.00
2018-01-22T04:32:56.563Z,0.00
2018-01-22T04:33:56.492Z,0.00
2018-01-22T04:34:56.387Z,0.00
2018-01-22T04:35:56.330Z,0.00
2018-01-22T04:36:56.228Z,0.00
2018-01-22T04:37:56.139Z,0.00
2018-01-22T04:38:56.064Z,0.00
2018-01-22T04:39:55.992Z,0.00
2018-01-22T04:40:55.900Z,0.00
2018-01-22T04:41:55.805Z,0.00
2018-01-22T04:42:55.727Z,0.00
2018-01-22T04:43:55.646Z,0.00
2018-01-22T04:44:55.603Z,0.00
2018-01-22T04:45:55.476Z,0.00
2018-01-22T04:46:55.406Z,0.00
2018-01-22T04:47:55.310Z,0.00
2018-01-22T04:48:55.240Z,0.00
2018-01-22T04:49:55.149Z,0.00
2018-01-22T04:50:55.094Z,0.00
2018-01-22T04:51:54.973Z,0.00
2018-01-22T04:52:54.901Z,0.00
2018-01-22T04:53:54.808Z,0.00
2018-01-22T04:54:54.732Z,0.00
2018-01-22T04:55:54.663Z,0.00
2018-01-22T04:56:54.571Z,0.00
2018-01-22T04:57:54.478Z,0.00
2018-01-22T04:58:54.423Z,0.00
2018-01-22T04:59:54.318Z,0.00
2018-01-22T05:00:54.254Z,0.00
2018-01-22T05:01:54.146Z,0.00
2018-01-22T05:02:54.071Z,0.00
2018-01-22T05:03:53.980Z,0.00
2018-01-22T05:04:53.901Z,0.00
2018-01-22T05:05:53.952Z,0.00
2018-01-22T05:06:53.759Z,0.00
2018-01-22T05:07:53.645Z,0.00
2018-01-22T05:08:53.573Z,0.00
2018-01-22T05:09:53.481Z,0.00
2018-01-22T05:10:53.420Z,0.00
2018-01-22T05:11:53.322Z,0.00
2018-01-22T05:12:53.259Z,0.00
2018-01-22T05:13:53.140Z,0.00
2018-01-22T05:14:53.077Z,0.00
2018-01-22T05:15:52.981Z,0.00
2018-01-22T05:16:52.939Z,0.00
2018-01-22T05:17:52.840Z,0.00
2018-01-22T05:18:52.750Z,0.00
2018-01-22T05:19:52.716Z,0.00
2018-01-22T05:20:52.569Z,0.00
2018-01-22T05:21:52.487Z,0.00
2018-01-22T05:22:52.436Z,0.00
2018-01-22T05:23:52.321Z,0.00
2018-01-22T05:24:52.267Z,0.00
2018-01-22T05:25:52.163Z,0.00
2018-01-22T05:26:52.078Z,0.00
2018-01-22T05:27:52.010Z,0.00
2018-01-22T05:28:51.940Z,0.00
2018-01-22T05:29:51.823Z,0.00
2018-01-22T05:30:51.750Z,0.00
2018-01-22T05:31:51.675Z,0.00
2018-01-22T05:32:51.590Z,0.00
2018-01-22T05:33:51.514Z,0.00
2018-01-22T05:34:51.420Z,0.00
2018-01-22T05:35:51.343Z,0.00
2018-01-22T05:36:51.255Z,0.00
2018-01-22T05:37:51.156Z,0.00
2018-01-22T05:38:51.104Z,0.00
2018-01-22T05:39:50.994Z,0.00
2018-01-22T05:40:51.050Z,0.00
2018-01-22T05:41:50.836Z,0.00
2018-01-22T05:42:50.886Z,0.00
2018-01-22T05:43:50.692Z,0.00
2018-01-22T05:44:50.677Z,0.00
2018-01-22T05:45:50.512Z,0.00
2018-01-22T05:46:50.500Z,0.00
2018-01-22T05:47:50.342Z,0.00
2018-01-22T05:48:50.306Z,0.00
2018-01-22T05:49:50.181Z,0.00
2018-01-22T05:50:50.197Z,0.00
2018-01-22T05:51:50.006Z,0.00
2018-01-22T05:52:50.005Z,0.00
2018-01-22T05:53:49.852Z,0.00
2018-01-22T05:54:49.810Z,0.00
2018-01-22T05:55:49.668Z,0.00
2018-01-22T05:56:49.727Z,0.00
2018-01-22T05:57:49.505Z,0.00
2018-01-22T05:58:50.281Z,0.00
2018-01-22T05:59:49.341Z,0.00
2018-01-22T06:00:49.335Z,0.00
2018-01-22T06:03:57.600Z,0.00
2018-01-22T06:06:39.590Z,0.00
2018-01-22T06:07:39.526Z,0.00
2018-01-22T06:08:39.455Z,0.00
2018-01-22T06:09:39.375Z,0.00
2018-01-22T06:10:39.256Z,0.00
2018-01-22T06:11:39.204Z,0.00
2018-01-22T06:12:39.090Z,0.00
2018-01-22T06:13:39.017Z,0.00
2018-01-22T06:14:38.960Z,0.00
2018-01-22T06:15:38.859Z,0.00
2018-01-22T06:16:38.765Z,0.00
2018-01-22T06:17:38.686Z,0.00
2018-01-22T06:18:38.591Z,0.00
2018-01-22T06:19:38.558Z,0.00
2018-01-22T06:20:38.477Z,0.00
2018-01-22T06:21:38.364Z,0.00
2018-01-22T06:22:38.291Z,0.00
2018-01-22T06:23:38.183Z,0.00
2018-01-22T06:24:38.098Z,0.00
2018-01-22T06:25:38.043Z,0.00
2018-01-22T06:26:37.939Z,0.00
2018-01-22T06:27:37.867Z,0.00
2018-01-22T06:28:37.777Z,0.00
2018-01-22T06:29:37.739Z,0.00
2018-01-22T06:30:37.648Z,0.00
2018-01-22T06:31:37.551Z,0.00
2018-01-22T06:32:37.439Z,0.00
2018-01-22T06:33:37.368Z,0.00
2018-01-22T06:34:37.271Z,0.00
2018-01-22T06:35:37.220Z,0.00
2018-01-22T06:36:37.104Z,0.00
2018-01-22T06:37:37.032Z,0.00
2018-01-22T06:38:36.964Z,0.00
2018-01-22T06:39:36.877Z,0.00
2018-01-22T06:40:36.793Z,0.00
2018-01-22T06:41:36.711Z,0.00
2018-01-22T06:42:36.623Z,0.00
2018-01-22T06:43:36.551Z,0.00
2018-01-22T06:44:36.450Z,0.00
2018-01-22T06:45:36.401Z,0.00
2018-01-22T06:46:36.300Z,0.00
2018-01-22T06:47:36.206Z,0.00
2018-01-22T06:48:36.116Z,0.00
2018-01-22T06:49:36.048Z,0.00
2018-01-22T06:50:35.977Z,0.00
2018-01-22T06:53:18.117Z,0.00
2018-01-22T06:54:18.030Z,0.00
2018-01-22T06:55:17.930Z,0.00
2018-01-22T06:56:17.863Z,0.00
2018-01-22T06:57:17.766Z,0.00
2018-01-22T06:58:17.709Z,0.00
2018-01-22T06:59:17.626Z,0.00
2018-01-22T07:00:17.535Z,0.00
2018-01-22T07:01:17.437Z,0.00
2018-01-22T07:02:17.365Z,0.00
2018-01-22T07:03:17.290Z,0.00
2018-01-22T07:04:17.218Z,4.00
2018-01-22T07:05:17.103Z,4.00
2018-01-22T07:06:17.045Z,0.00
2018-01-22T07:07:16.964Z,4.00
2018-01-22T07:08:16.993Z,4.00
2018-01-22T07:09:16.768Z,4.00
2018-01-22T07:10:16.702Z,4.00
2018-01-22T07:11:16.614Z,4.00
2018-01-22T07:12:16.536Z,4.00
2018-01-22T07:13:16.491Z,4.00
2018-01-22T07:14:16.401Z,8.00
2018-01-22T07:15:16.279Z,4.00
2018-01-22T07:16:16.192Z,8.00
2018-01-22T07:17:16.116Z,12.00
2018-01-22T07:18:16.058Z,12.00
2018-01-22T07:19:15.944Z,12.00
2018-01-22T07:20:15.884Z,16.00
2018-01-22T07:21:15.786Z,12.00
2018-01-22T07:22:15.711Z,16.00
2018-01-22T07:23:15.645Z,12.00
2018-01-22T07:24:15.561Z,12.00
2018-01-22T07:25:15.457Z,16.00
2018-01-22T07:26:15.383Z,20.00
2018-01-22T07:27:15.289Z,16.00
2018-01-22T07:28:15.277Z,20.00
2018-01-22T07:29:15.158Z,24.00
2018-01-22T07:30:15.058Z,20.00
2018-01-22T07:31:15.019Z,20.00
2018-01-22T07:32:15.014Z,20.00
2018-01-22T07:33:14.806Z,24.00
2018-01-22T07:34:14.736Z,28.00
2018-01-22T07:35:14.627Z,28.00
2018-01-22T07:36:14.568Z,32.00
2018-01-22T07:37:14.466Z,36.00
2018-01-22T07:38:14.416Z,36.00
2018-01-22T07:39:14.330Z,40.00
2018-01-22T07:40:14.226Z,36.00
2018-01-22T07:41:14.132Z,44.00
2018-01-22T07:42:14.055Z,44.00
2018-01-22T07:43:13.969Z,40.00
2018-01-22T07:44:13.900Z,44.00
2018-01-22T07:45:13.815Z,48.00
2018-01-22T07:46:13.754Z,44.00
2018-01-22T07:47:13.635Z,48.00
2018-01-22T07:48:13.570Z,56.00
2018-01-22T07:49:13.473Z,56.00
2018-01-22T07:50:13.413Z,60.00
2018-01-22T07:51:13.319Z,68.00
2018-01-22T07:52:13.241Z,76.00
2018-01-22T07:53:13.211Z,72.00
2018-01-22T07:54:13.066Z,72.00
2018-01-22T07:55:13.003Z,72.00
2018-01-22T07:56:12.911Z,68.00
2018-01-22T07:57:12.811Z,68.00
2018-01-22T07:58:12.752Z,72.00
2018-01-22T07:59:12.646Z,80.00
2018-01-22T08:00:12.598Z,80.00
2018-01-22T08:01:12.508Z,80.00
2018-01-22T08:02:12.418Z,80.00
2018-01-22T08:03:12.320Z,84.00
2018-01-22T08:04:12.240Z,92.00
2018-01-22T08:05:12.164Z,100.00
2018-01-22T08:06:12.117Z,100.00
2018-01-22T08:07:12.706Z,96.00
2018-01-22T08:08:11.917Z,100.00
2018-01-22T08:09:11.849Z,100.00
2018-01-22T08:10:11.765Z,96.00
2018-01-22T08:11:11.662Z,100.00
2018-01-22T08:12:11.604Z,100.00
2018-01-22T08:13:11.503Z,104.00
2018-01-22T08:14:11.456Z,108.00
2018-01-22T08:15:11.341Z,120.00
2018-01-22T08:16:11.301Z,116.00
2018-01-22T08:17:11.222Z,124.00
2018-01-22T08:18:11.105Z,132.00
2018-01-22T08:19:11.003Z,132.00
2018-01-22T08:20:10.963Z,124.00
2018-01-22T08:21:10.863Z,128.00
2018-01-22T08:22:10.786Z,144.00
2018-01-22T08:23:10.679Z,136.00
2018-01-22T08:24:10.603Z,136.00
2018-01-22T08:25:10.513Z,168.00
2018-01-22T08:26:10.451Z,172.00
2018-01-22T08:27:10.400Z,176.00
2018-01-22T08:28:10.271Z,184.00
2018-01-22T08:29:10.176Z,188.00
2018-01-22T08:30:10.118Z,204.00
2018-01-22T08:31:10.048Z,204.00
2018-01-22T08:32:09.957Z,196.00
2018-01-22T08:33:09.879Z,196.00
2018-01-22T08:34:09.783Z,204.00
2018-01-22T08:35:09.686Z,180.00
2018-01-22T08:36:09.633Z,176.00
2018-01-22T08:37:09.542Z,220.00
2018-01-22T08:38:09.482Z,268.00
2018-01-22T08:39:09.366Z,280.00
2018-01-22T08:40:09.394Z,324.00
2018-01-22T08:41:09.202Z,312.00
2018-01-22T08:42:09.153Z,368.00
2018-01-22T08:43:09.047Z,384.00
2018-01-22T08:44:08.973Z,372.00
2018-01-22T08:45:08.882Z,352.00
2018-01-22T08:46:08.798Z,384.00
2018-01-22T08:47:08.707Z,380.00
2018-01-22T08:48:08.678Z,316.00
2018-01-22T08:49:08.539Z,288.00
2018-01-22T08:50:08.477Z,292.00
2018-01-22T08:51:08.375Z,392.00
2018-01-22T08:52:08.317Z,388.00
2018-01-22T08:53:08.297Z,584.00
2018-01-22T08:54:08.169Z,620.00
2018-01-22T08:55:08.047Z,528.00
2018-01-22T08:56:07.975Z,496.00
2018-01-22T08:57:07.895Z,544.00
2018-01-22T08:58:07.838Z,616.00
2018-01-22T08:59:07.719Z,740.00
2018-01-22T09:00:07.663Z,852.00
2018-01-22T09:01:07.582Z,784.00
2018-01-22T09:02:07.490Z,844.00
2018-01-22T09:03:07.389Z,864.00
2018-01-22T09:04:07.374Z,1168.00
2018-01-22T09:05:07.222Z,1408.00
2018-01-22T09:06:07.158Z,1572.00
2018-01-22T09:07:07.062Z,1604.00
2018-01-22T09:08:06.995Z,1596.00
2018-01-22T09:09:06.930Z,1624.00
2018-01-22T09:10:06.820Z,1732.00
2018-01-22T09:11:06.736Z,2072.00
2018-01-22T09:12:06.667Z,2100.00
2018-01-22T09:13:06.586Z,2200.00
2018-01-22T09:14:06.502Z,3160.00
2018-01-22T09:15:06.420Z,2976.00
2018-01-22T09:16:06.337Z,3492.00
2018-01-22T09:17:06.242Z,2852.00
2018-01-22T09:18:06.169Z,2388.00
2018-01-22T09:19:06.128Z,1996.00
2018-01-22T09:20:06.047Z,2232.00
2018-01-22T09:21:05.935Z,2176.00
2018-01-22T09:22:05.851Z,2232.00
2018-01-22T09:23:05.756Z,2144.00
2018-01-22T09:24:05.687Z,1636.00
2018-01-22T09:25:05.622Z,1660.00
2018-01-22T09:26:05.537Z,1736.00
2018-01-22T09:27:05.456Z,2016.00
2018-01-22T09:28:05.374Z,1828.00
2018-01-22T09:29:05.258Z,1840.00
2018-01-22T09:30:05.229Z,2048.00
2018-01-22T09:31:05.126Z,1872.00
2018-01-22T09:32:05.041Z,1672.00
2018-01-22T09:33:04.986Z,1780.00
2018-01-22T09:34:04.879Z,1816.00
2018-01-22T09:35:04.776Z,2040.00
2018-01-22T09:36:04.739Z,2248.00
2018-01-22T09:37:04.622Z,2388.00
2018-01-22T09:38:04.571Z,2556.00
2018-01-22T09:39:04.452Z,2560.00
2018-01-22T09:40:04.387Z,2684.00
2018-01-22T09:41:04.304Z,3172.00
2018-01-22T09:42:04.349Z,3352.00
2018-01-22T09:43:04.141Z,3152.00
2018-01-22T09:44:04.073Z,3384.00
2018-01-22T09:45:03.957Z,3056.00
2018-01-22T09:46:03.906Z,3296.00
2018-01-22T09:47:03.821Z,3408.00
2018-01-22T09:48:03.730Z,3236.00
2018-01-22T09:49:03.678Z,3168.00
2018-01-22T09:50:03.603Z,2768.00
2018-01-22T09:51:03.480Z,2380.00
2018-01-22T09:52:03.440Z,1948.00
2018-01-22T09:53:03.336Z,1888.00
2018-01-22T09:54:03.250Z,1944.00
2018-01-22T09:55:03.164Z,2216.00
2018-01-22T09:56:03.081Z,2260.00
2018-01-22T09:57:03.015Z,1976.00
2018-01-22T09:58:02.930Z,2260.00
2018-01-22T09:59:02.847Z,2248.00
2018-01-22T10:00:02.769Z,2240.00
2018-01-22T10:01:02.712Z,1780.00
2018-01-22T10:02:02.635Z,1296.00
2018-01-22T10:03:02.648Z,1128.00
2018-01-22T10:04:02.442Z,1064.00
2018-01-22T10:05:02.345Z,1040.00
2018-01-22T10:06:02.290Z,1288.00
2018-01-22T10:07:02.233Z,1392.00
2018-01-22T10:08:02.117Z,1308.00
2018-01-22T10:09:02.068Z,1304.00
2018-01-22T10:10:01.950Z,1204.00
2018-01-22T10:11:01.862Z,916.00
2018-01-22T10:12:01.796Z,1024.00
2018-01-22T10:13:01.741Z,908.00
2018-01-22T10:14:01.783Z,1164.00
2018-01-22T10:15:01.610Z,1028.00
2018-01-22T10:16:01.470Z,1140.00
2018-01-22T10:17:01.381Z,1308.00
2018-01-22T10:18:01.329Z,1160.00
2018-01-22T10:19:01.217Z,880.00
2018-01-22T10:20:01.182Z,980.00
2018-01-22T10:21:01.104Z,900.00
2018-01-22T10:22:01.002Z,1284.00
2018-01-22T10:23:00.897Z,1356.00
2018-01-22T10:24:00.878Z,1200.00
2018-01-22T10:25:00.743Z,1308.00
2018-01-22T10:26:00.662Z,1768.00
2018-01-22T10:27:00.580Z,1792.00
2018-01-22T10:28:00.511Z,1940.00
2018-01-22T10:29:00.438Z,1288.00
2018-01-22T10:30:00.394Z,952.00
2018-01-22T10:31:00.247Z,1204.00
2018-01-22T10:32:00.181Z,1700.00
2018-01-22T10:33:00.092Z,1812.00
2018-01-22T10:34:00.042Z,1968.00
2018-01-22T10:34:59.933Z,2176.00
2018-01-22T10:35:59.857Z,2464.00
2018-01-22T10:36:59.769Z,3276.00
2018-01-22T10:37:59.723Z,3348.00
2018-01-22T10:38:59.619Z,3836.00
2018-01-22T10:39:59.534Z,3056.00
2018-01-22T10:40:59.459Z,3216.00
2018-01-22T10:41:59.372Z,3224.00
2018-01-22T10:42:59.288Z,4276.00
2018-01-22T10:43:59.270Z,5656.00
2018-01-22T10:44:59.136Z,6256.00
2018-01-22T10:45:59.085Z,7148.00
2018-01-22T10:46:58.989Z,8440.00
2018-01-22T10:47:58.910Z,7412.00
2018-01-22T10:48:58.810Z,6080.00
2018-01-22T10:49:58.763Z,6124.00
2018-01-22T10:50:58.678Z,7276.00
2018-01-22T10:51:58.582Z,4280.00
2018-01-22T10:52:58.505Z,4948.00
2018-01-22T10:53:58.432Z,5152.00
2018-01-22T10:54:58.345Z,4692.00
2018-01-22T10:55:58.304Z,6532.00
2018-01-22T10:56:58.225Z,7320.00
2018-01-22T10:57:58.109Z,6380.00
2018-01-22T10:58:58.026Z,5156.00
2018-01-22T10:59:57.956Z,4180.00
2018-01-22T11:00:57.866Z,4372.00
2018-01-22T11:01:57.825Z,5556.00
2018-01-22T11:02:57.748Z,4916.00
2018-01-22T11:03:57.642Z,5336.00
2018-01-22T11:04:57.563Z,5076.00
2018-01-22T11:05:57.488Z,4332.00
2018-01-22T11:06:57.413Z,4144.00
2018-01-22T11:07:57.338Z,3820.00
2018-01-22T11:08:57.236Z,3576.00
2018-01-22T11:09:57.173Z,2828.00
2018-01-22T11:10:57.122Z,2436.00
2018-01-22T11:11:57.004Z,2388.00
2018-01-22T11:12:56.934Z,1920.00
2018-01-22T11:13:56.846Z,2116.00
2018-01-22T11:14:56.761Z,2192.00
2018-01-22T11:15:56.694Z,1576.00
2018-01-22T11:16:56.611Z,1688.00
2018-01-22T11:17:56.588Z,2296.00
2018-01-22T11:18:56.451Z,2056.00
2018-01-22T11:21:38.630Z,1920.00
2018-01-22T11:22:38.566Z,2640.00
2018-01-22T11:23:38.512Z,2148.00
2018-01-22T11:24:38.419Z,2348.00
2018-01-22T11:25:38.309Z,2220.00
2018-01-22T11:26:38.244Z,2580.00
2018-01-22T11:27:38.153Z,2184.00
2018-01-22T11:28:38.120Z,2700.00
2018-01-22T11:29:38.001Z,2676.00
2018-01-22T11:30:37.936Z,2692.00
2018-01-22T11:31:37.837Z,2440.00
2018-01-22T11:32:37.786Z,1608.00
2018-01-22T11:33:37.692Z,1652.00
2018-01-22T11:34:37.636Z,1528.00
2018-01-22T11:35:37.522Z,1852.00
2018-01-22T11:36:37.450Z,1680.00
2018-01-22T11:37:37.383Z,1560.00
2018-01-22T11:38:37.317Z,1996.00
2018-01-22T11:39:37.293Z,2088.00
2018-01-22T11:40:37.148Z,2028.00
2018-01-22T11:41:37.066Z,1796.00
2018-01-22T11:42:36.992Z,2556.00
2018-01-22T11:43:36.886Z,2440.00
2018-01-22T11:44:36.846Z,2044.00
2018-01-22T11:45:36.779Z,2920.00
2018-01-22T11:46:36.653Z,3284.00
2018-01-22T11:47:36.575Z,3392.00
2018-01-22T11:48:36.509Z,4048.00
2018-01-22T11:49:36.458Z,3708.00
2018-01-22T11:50:36.347Z,3004.00
2018-01-22T11:51:36.257Z,2736.00
2018-01-22T11:52:36.180Z,3452.00
2018-01-22T11:53:36.092Z,3572.00
2018-01-22T11:54:36.054Z,4524.00
2018-01-22T11:55:35.958Z,5400.00
2018-01-22T11:56:35.905Z,5160.00
2018-01-22T11:57:35.792Z,4728.00
2018-01-22T11:58:35.752Z,3528.00
2018-01-22T11:59:35.622Z,2764.00
2018-01-22T12:00:35.584Z,3492.00
2018-01-22T12:01:35.467Z,4152.00
2018-01-22T12:02:35.395Z,4384.00
2018-01-22T12:03:35.299Z,4040.00
2018-01-22T12:04:35.237Z,3392.00
2018-01-22T12:05:35.215Z,3972.00
2018-01-22T12:06:35.086Z,3920.00
2018-01-22T12:07:35.001Z,3708.00
2018-01-22T12:08:34.931Z,3280.00
2018-01-22T12:09:34.836Z,3116.00
2018-01-22T12:10:34.791Z,2880.00
2018-01-22T12:11:34.687Z,2792.00
2018-01-22T12:12:34.611Z,2648.00
2018-01-22T12:13:34.518Z,2436.00
2018-01-22T12:14:34.571Z,2412.00
2018-01-22T12:15:34.361Z,2440.00
2018-01-22T12:16:34.353Z,2800.00
2018-01-22T12:17:34.201Z,3124.00
2018-01-22T12:18:34.127Z,3856.00
2018-01-22T12:19:34.036Z,3828.00
2018-01-22T12:20:33.964Z,3356.00
2018-01-22T12:21:33.911Z,3092.00
2018-01-22T12:22:33.842Z,3084.00
2018-01-22T12:23:33.725Z,3036.00
2018-01-22T12:24:33.653Z,2628.00
2018-01-22T12:25:33.617Z,2984.00
2018-01-22T12:26:33.495Z,3444.00
2018-01-22T12:27:33.406Z,3168.00
2018-01-22T12:28:33.432Z,3264.00
2018-01-22T12:29:33.252Z,2808.00
2018-01-22T12:30:33.186Z,2816.00
2018-01-22T12:31:33.097Z,2536.00
2018-01-22T12:32:33.019Z,2152.00
2018-01-22T12:33:32.958Z,2648.00
2018-01-22T12:34:32.877Z,2620.00
2018-01-22T12:35:32.780Z,2208.00
2018-01-22T12:36:32.716Z,2052.00
2018-01-22T12:37:32.765Z,1908.00
2018-01-22T12:38:32.560Z,1448.00
2018-01-22T12:39:32.472Z,1420.00
2018-01-22T12:40:32.394Z,1472.00
2018-01-22T12:41:32.315Z,1264.00
2018-01-22T12:42:32.256Z,1436.00
2018-01-22T12:43:32.146Z,1596.00
2018-01-22T12:44:32.095Z,1768.00
2018-01-22T12:45:32.006Z,1692.00
2018-01-22T12:46:32.715Z,1924.00
2018-01-22T12:47:31.838Z,1724.00
2018-01-22T12:48:31.769Z,1568.00
2018-01-22T12:49:31.673Z,1680.00
2018-01-22T12:50:31.606Z,1676.00
2018-01-22T12:51:31.509Z,1724.00
2018-01-22T12:52:31.468Z,1668.00
2018-01-22T12:53:31.354Z,1688.00
2018-01-22T12:54:31.280Z,1880.00
2018-01-22T12:55:31.215Z,1484.00
2018-01-22T12:56:31.127Z,1300.00